Time;durP1;ratioP1;P1;durP2;ratioP2;P2;SDS_P1;SDS_P2;PMS_P1;PMS_P2;Temp;Humidity;BMP_temperature;BMP_pressure;BME280_temperature;BME280_humidity;BME280_pressure;Samples;Min_cycle;Max_cycle;Signal;HPM_P1;HPM_P2
2021/06/04 00:00:19;;;;;;;;;1.00;1.00;;;;;19.82;66.77;101636.25;5067735;27;45691;-81
2021/06/04 00:02:46;;;;;;;;;0.00;0.00;;;;;19.56;66.84;101589.09;5071844;28;45298;-81
2021/06/04 00:05:13;;;;;;;;;1.00;1.00;;;;;19.54;67.23;101601.50;5074833;27;45513;-81
2021/06/04 00:07:39;;;;;;;;;0.00;0.00;;;;;19.33;67.81;101556.88;5076294;28;45448;-81
2021/06/04 00:10:19;;;;;;;;;0.50;0.00;;;;;19.45;67.62;101565.53;5075994;28;48087;-82
2021/06/04 00:12:45;;;;;;;;;1.00;0.00;;;;;19.78;67.88;101617.84;5064160;28;45283;-81
2021/06/04 00:15:16;;;;;;;;;0.00;0.00;;;;;19.71;67.58;101604.72;5067572;28;45346;-81
2021/06/04 00:17:43;;;;;;;;;0.00;0.00;;;;;19.49;67.71;101573.38;5071405;28;46554;-81
2021/06/04 00:20:15;;;;;;;;;0.75;0.00;;;;;19.91;67.68;101640.53;5072939;27;45465;-81
2021/06/04 00:22:41;;;;;;;;;2.75;0.00;;;;;19.98;67.51;101652.75;5075648;28;45610;-81
2021/06/04 00:25:07;;;;;;;;;0.00;0.00;;;;;20.02;67.48;101656.22;5072590;28;45394;-81
2021/06/04 00:27:34;;;;;;;;;1.25;1.00;;;;;20.06;67.31;101657.06;5071022;28;46622;-82
2021/06/04 00:29:59;;;;;;;;;0.50;0.50;;;;;20.08;67.40;101677.28;5074507;28;45277;-81
2021/06/04 00:32:24;;;;;;;;;1.50;1.00;;;;;20.03;67.07;101660.59;5071475;28;45533;-81
2021/06/04 00:34:51;;;;;;;;;1.00;1.00;;;;;19.99;67.33;101667.69;5075918;28;45322;-82
2021/06/04 00:37:18;;;;;;;;;1.00;0.00;;;;;20.03;67.03;101663.25;5072701;28;45481;-81
2021/06/04 00:39:44;;;;;;;;;1.00;1.00;;;;;19.97;67.30;101650.13;5063923;27;45467;-81
2021/06/04 00:42:20;;;;;;;;;1.00;0.75;;;;;20.00;67.16;101658.00;5066381;28;45764;-80
2021/06/04 00:44:47;;;;;;;;;0.00;0.00;;;;;19.99;67.07;101667.69;5072549;27;45392;-81
2021/06/04 00:47:13;;;;;;;;;1.50;1.50;;;;;19.83;66.87;101642.41;5058238;28;47476;-81
2021/06/04 00:49:39;;;;;;;;;2.25;1.00;;;;;19.92;67.31;101668.69;5075074;28;45510;-81
2021/06/04 00:52:21;;;;;;;;;1.00;1.00;;;;;19.95;67.19;101673.03;5076488;28;45448;-81
2021/06/04 00:54:48;;;;;;;;;0.25;0.25;;;;;19.89;67.10;101660.81;5064238;28;45376;-81
2021/06/04 00:57:14;;;;;;;;;0.50;0.50;;;;;20.02;66.75;101679.13;5065510;28;48547;-82
2021/06/04 00:59:41;;;;;;;;;1.00;1.00;;;;;19.97;66.53;101687.13;5072738;28;45458;-82
2021/06/04 01:02:22;;;;;;;;;0.00;0.00;;;;;19.87;66.63;101670.50;5060289;27;45504;-82
2021/06/04 01:04:47;;;;;;;;;0.00;0.00;;;;;19.87;66.37;101678.44;5059945;28;45366;-81
2021/06/04 01:07:17;;;;;;;;;0.00;0.00;;;;;19.98;66.19;101721.44;5058917;28;48495;-81
2021/06/04 01:10:16;;;;;;;;;0.00;0.00;;;;;19.81;66.28;101761.31;5075112;28;45386;-81
2021/06/04 01:12:50;;;;;;;;;2.50;1.00;;;;;19.56;66.63;101766.03;5072991;28;45441;-81
2021/06/04 01:15:47;;;;;;;;;0.00;0.00;;;;;19.28;66.55;101721.50;5067780;28;45387;-81
2021/06/04 01:18:19;;;;;;;;;1.50;1.50;;;;;19.49;66.35;101749.41;5056573;28;48294;-81
2021/06/04 01:20:52;;;;;;;;;1.00;1.00;;;;;19.36;66.85;101724.94;5059639;28;45564;-81
2021/06/04 01:23:45;;;;;;;;;0.25;0.00;;;;;19.28;68.14;101726.78;5075155;27;45414;-81
2021/06/04 01:26:48;;;;;;;;;0.00;0.00;;;;;19.21;68.63;101723.34;5068717;27;46418;-81
2021/06/04 01:29:20;;;;;;;;;0.00;0.00;;;;;19.14;69.02;101717.25;5020380;28;46732;-82
2021/06/04 01:31:57;;;;;;;;;0.00;0.00;;;;;19.01;69.15;101691.91;5032921;28;45400;-81
2021/06/04 01:34:44;;;;;;;;;1.75;0.25;;;;;18.83;68.67;101678.00;5029936;28;45486;-81
2021/06/04 01:37:17;;;;;;;;;0.00;0.00;;;;;18.85;68.92;101694.69;5018562;28;45498;-80
2021/06/04 01:39:46;;;;;;;;;0.00;0.00;;;;;18.80;69.12;101691.25;5004190;28;47300;-81
2021/06/04 01:42:15;;;;;;;;;0.00;0.00;;;;;18.69;69.53;101660.59;5023855;28;45637;-81
2021/06/04 01:44:46;;;;;;;;;2.00;0.25;;;;;18.72;69.38;101668.44;5025141;28;45522;-81
2021/06/04 01:47:17;;;;;;;;;1.75;1.75;;;;;18.81;68.78;101663.97;5033883;28;45978;-82
2021/06/04 01:49:48;;;;;;;;;0.00;0.00;;;;;18.91;68.61;101699.03;5019295;28;48454;-81
2021/06/04 01:52:19;;;;;;;;;1.25;0.00;;;;;18.90;68.59;101684.09;5036802;28;45471;-82
2021/06/04 01:54:52;;;;;;;;;0.00;0.00;;;;;18.84;67.86;101685.91;5034889;28;45708;-82
2021/06/04 01:57:23;;;;;;;;;0.50;0.50;;;;;18.67;68.35;101659.72;5027919;28;49111;-81
2021/06/04 01:59:52;;;;;;;;;0.75;0.00;;;;;18.37;68.30;101609.06;5029256;28;45569;-81
2021/06/04 02:02:19;;;;;;;;;0.75;0.75;;;;;18.65;68.24;101673.81;5027053;28;45545;-81
2021/06/04 02:04:53;;;;;;;;;0.50;0.50;;;;;18.57;68.69;101666.88;5077695;28;45491;-80
2021/06/04 02:07:24;;;;;;;;;1.00;0.00;;;;;18.61;68.74;101665.94;5073921;28;45340;-80
2021/06/04 02:09:49;;;;;;;;;1.00;0.00;;;;;18.42;67.94;101615.16;5065042;28;45513;-80
2021/06/04 02:12:15;;;;;;;;;0.50;0.00;;;;;18.71;68.92;101656.16;5069819;27;45381;-82
2021/06/04 02:14:48;;;;;;;;;0.25;0.00;;;;;18.71;68.13;101639.44;5073827;28;45535;-81
2021/06/04 02:17:32;;;;;;;;;0.25;0.25;;;;;18.93;68.76;101648.00;5078857;28;45465;-82
2021/06/04 02:20:04;;;;;;;;;3.00;1.00;;;;;19.02;68.15;101649.63;5061908;28;45486;-81
2021/06/04 02:22:32;;;;;;;;;0.00;0.00;;;;;18.83;67.75;101612.06;5075892;28;49045;-81
2021/06/04 02:25:08;;;;;;;;;0.25;0.00;;;;;19.00;67.73;101651.44;5078393;27;45592;-81
2021/06/04 02:27:38;;;;;;;;;0.50;0.50;;;;;18.80;67.76;101630.59;5066471;28;45586;-81
2021/06/04 02:30:22;;;;;;;;;0.00;0.00;;;;;18.99;67.46;101655.84;5072602;28;46676;-81
2021/06/04 02:33:25;;;;;;;;;0.25;0.00;;;;;19.00;68.09;101664.63;5073066;27;45565;-81
2021/06/04 02:36:08;;;;;;;;;0.00;0.00;;;;;18.91;67.50;101670.00;5073271;27;45445;-81
2021/06/04 02:38:39;;;;;;;;;0.25;0.00;;;;;18.94;67.34;101684.06;5075671;28;45475;-81
2021/06/04 02:41:19;;;;;;;;;0.00;0.00;;;;;19.05;67.94;101697.09;5064110;28;46722;-81
2021/06/04 02:43:49;;;;;;;;;0.00;0.00;;;;;19.09;67.54;101706.78;5059198;28;46582;-81
2021/06/04 02:46:30;;;;;;;;;0.00;0.00;;;;;19.12;67.45;101716.44;5074354;28;45546;-81
2021/06/04 02:48:56;;;;;;;;;0.00;0.00;;;;;18.95;67.56;101708.66;5073769;28;45418;-81
2021/06/04 02:51:50;;;;;;;;;1.25;1.25;;;;;18.92;68.16;101735.94;5072412;27;45696;-81
2021/06/04 02:54:21;;;;;;;;;2.25;0.00;;;;;18.78;68.73;101722.03;5072242;27;45479;-81
2021/06/04 02:56:49;;;;;;;;;1.00;1.00;;;;;18.78;68.59;101703.56;5073970;27;45481;-80
2021/06/04 02:59:17;;;;;;;;;0.00;0.00;;;;;18.74;69.56;101678.97;5065704;28;45331;-81
2021/06/04 03:01:51;;;;;;;;;0.50;0.00;;;;;18.80;69.75;101704.44;5076805;27;45639;-81
2021/06/04 03:04:17;;;;;;;;;0.00;0.00;;;;;18.57;69.88;101653.69;5073683;27;45595;-80
2021/06/04 03:06:47;;;;;;;;;0.00;0.00;;;;;19.01;69.42;101739.41;5072428;27;45511;-81
2021/06/04 03:09:18;;;;;;;;;2.00;0.00;;;;;18.95;69.98;101762.31;5065967;28;45345;-81
2021/06/04 03:11:44;;;;;;;;;0.00;0.00;;;;;18.91;70.59;101765.88;5064377;28;46124;-81
2021/06/04 03:14:13;;;;;;;;;1.00;1.00;;;;;18.85;70.41;101744.81;5074101;28;45600;-81
2021/06/04 03:16:39;;;;;;;;;3.00;0.00;;;;;18.95;70.68;101725.38;5076068;28;45738;-81
2021/06/04 03:19:12;;;;;;;;;1.50;1.50;;;;;18.95;70.19;101698.09;5073573;28;45445;-81
2021/06/04 03:21:43;;;;;;;;;1.25;0.00;;;;;19.11;70.01;101693.53;5068971;27;46960;-81
2021/06/04 03:24:12;;;;;;;;;0.50;0.00;;;;;19.02;70.93;101662.84;5067730;27;45405;-80
2021/06/04 03:26:39;;;;;;;;;0.25;0.25;;;;;18.63;71.35;101588.56;5074270;27;45540;-81
2021/06/04 03:29:12;;;;;;;;;0.00;0.00;;;;;18.98;71.63;101635.63;5061244;28;45402;-81
2021/06/04 03:31:41;;;;;;;;;1.00;1.00;;;;;18.84;70.99;101596.22;5075683;28;47088;-81
2021/06/04 03:34:08;;;;;;;;;1.00;0.00;;;;;19.02;70.61;101607.44;5072883;28;45402;-80
2021/06/04 03:36:36;;;;;;;;;3.00;0.00;;;;;18.95;70.88;101592.56;5059975;28;45558;-81
2021/06/04 03:39:05;;;;;;;;;0.00;0.00;;;;;18.90;70.62;101581.22;5066530;27;45525;-81
2021/06/04 03:41:33;;;;;;;;;0.50;0.50;;;;;18.81;71.28;101579.56;5072114;28;47336;-81
2021/06/04 03:44:00;;;;;;;;;1.25;1.00;;;;;18.77;71.60;101588.41;5075093;27;45337;-80
2021/06/04 03:46:26;;;;;;;;;2.75;1.00;;;;;18.76;71.60;101578.75;5074054;28;45437;-80
2021/06/04 03:48:51;;;;;;;;;1.50;1.00;;;;;18.77;71.41;101578.72;5073151;27;45346;-80
2021/06/04 03:51:22;;;;;;;;;0.00;0.00;;;;;18.73;71.00;101580.53;5071325;28;46342;-80
2021/06/04 03:53:48;;;;;;;;;1.75;0.00;;;;;18.76;70.98;101584.91;5072044;28;45540;-80
2021/06/04 03:56:16;;;;;;;;;0.00;0.00;;;;;18.69;70.92;101592.03;5076149;28;45421;-80
2021/06/04 03:58:43;;;;;;;;;0.00;0.00;;;;;18.64;70.84;101588.56;5060586;27;45383;-81
2021/06/04 04:01:13;;;;;;;;;0.75;0.75;;;;;18.50;71.08;101565.00;5072365;28;45607;-80
2021/06/04 04:03:40;;;;;;;;;1.00;1.00;;;;;18.44;70.74;101549.25;5070779;28;45356;-80
2021/06/04 04:06:05;;;;;;;;;0.25;0.25;;;;;18.45;70.54;101545.72;5071407;28;45479;-81
2021/06/04 04:08:31;;;;;;;;;1.00;1.00;;;;;18.56;70.03;101570.19;5071980;28;45441;-80
2021/06/04 04:10:59;;;;;;;;;0.25;0.25;;;;;18.56;70.12;101572.81;5074965;28;45374;-81
2021/06/04 04:13:27;;;;;;;;;1.00;1.00;;;;;18.54;70.28;101565.81;5073333;27;45366;-80
2021/06/04 04:15:54;;;;;;;;;1.00;1.00;;;;;18.53;70.75;101559.66;5071891;28;45275;-80
2021/06/04 04:18:20;;;;;;;;;0.75;0.75;;;;;18.31;70.28;101528.28;5071228;27;45429;-81
2021/06/04 04:20:50;;;;;;;;;4.25;1.00;;;;;18.52;69.70;101559.69;5070908;28;46270;-81
2021/06/04 04:23:19;;;;;;;;;1.75;0.00;;;;;18.53;70.38;101569.34;5076384;27;45503;-80
2021/06/04 04:25:45;;;;;;;;;0.75;0.75;;;;;18.57;69.86;101571.06;5059473;28;45429;-81
2021/06/04 04:28:15;;;;;;;;;1.50;0.25;;;;;18.58;69.65;101565.78;5072768;28;45487;-79
2021/06/04 04:30:40;;;;;;;;;0.25;0.25;;;;;18.52;69.29;101552.66;5070977;28;45378;-80
2021/06/04 04:33:07;;;;;;;;;0.00;0.00;;;;;18.56;70.06;101550.88;5071151;28;45400;-81
2021/06/04 04:35:35;;;;;;;;;1.00;1.00;;;;;18.65;69.81;101557.78;5073663;28;45313;-80
2021/06/04 04:38:02;;;;;;;;;1.00;1.00;;;;;18.68;69.47;101536.66;5064397;28;45343;-80
2021/06/04 04:40:30;;;;;;;;;1.00;0.75;;;;;18.65;69.38;101531.44;5073228;27;45492;-80
2021/06/04 04:42:56;;;;;;;;;0.00;0.00;;;;;18.63;69.11;101535.84;5071447;28;45599;-80
2021/06/04 04:45:25;;;;;;;;;1.50;0.75;;;;;18.69;69.19;101544.56;5071215;28;45345;-80
2021/06/04 04:47:50;;;;;;;;;0.00;0.00;;;;;18.76;69.16;101541.81;5071504;27;45401;-81
2021/06/04 04:50:18;;;;;;;;;1.00;1.00;;;;;18.69;68.79;101538.41;5071250;28;45383;-80
2021/06/04 04:52:43;;;;;;;;;0.00;0.00;;;;;18.76;69.58;101553.25;5075211;28;45371;-80
2021/06/04 04:55:10;;;;;;;;;0.00;0.00;;;;;18.85;68.97;101549.63;5071717;28;45489;-80
2021/06/04 04:57:35;;;;;;;;;1.50;1.00;;;;;18.93;69.17;101539.81;5064749;28;45554;-80
2021/06/04 05:00:03;;;;;;;;;0.00;0.00;;;;;19.01;68.14;101533.59;5064748;27;45368;-80
2021/06/04 05:02:28;;;;;;;;;0.75;0.75;;;;;19.00;68.56;101532.72;5073870;27;45702;-80
2021/06/04 05:04:53;;;;;;;;;0.00;0.00;;;;;19.06;68.31;101529.13;5058917;28;45730;-80
2021/06/04 05:07:19;;;;;;;;;0.00;0.00;;;;;19.16;68.51;101527.22;5072675;28;45243;-81
2021/06/04 05:09:44;;;;;;;;;2.50;1.00;;;;;19.19;67.37;101511.34;5070737;28;45478;-80
2021/06/04 05:12:10;;;;;;;;;1.00;0.00;;;;;19.25;67.41;101521.81;5070675;28;45742;-81
2021/06/04 05:14:37;;;;;;;;;1.00;0.00;;;;;19.19;67.74;101520.16;5070862;27;45556;-81
2021/06/04 05:17:03;;;;;;;;;2.50;0.75;;;;;19.33;67.90;101564.81;5075978;28;45477;-81
2021/06/04 05:19:30;;;;;;;;;0.00;0.00;;;;;19.31;67.31;101629.09;5075639;27;45588;-80
2021/06/04 05:21:56;;;;;;;;;3.00;1.75;;;;;19.03;67.45;101721.75;5083211;27;46149;-79
2021/06/04 05:24:23;;;;;;;;;0.00;0.00;;;;;18.76;68.59;101719.41;5067843;27;46425;-80
2021/06/04 05:26:48;;;;;;;;;0.00;0.00;;;;;18.57;69.42;101671.25;5062767;28;45761;-80
2021/06/04 05:29:14;;;;;;;;;1.00;0.00;;;;;18.60;68.95;101692.31;5067546;27;45551;-80
2021/06/04 05:31:40;;;;;;;;;0.00;0.00;;;;;18.29;68.55;101677.69;5076981;27;45509;-79
2021/06/04 05:34:07;;;;;;;;;0.00;0.00;;;;;18.06;69.06;101717.31;5078972;28;45412;-80
2021/06/04 05:36:34;;;;;;;;;0.00;0.00;;;;;17.79;69.82;101717.50;5074037;27;45528;-81
2021/06/04 05:39:06;;;;;;;;;0.00;0.00;;;;;17.75;70.36;101736.84;5072936;27;45372;-80
2021/06/04 05:41:32;;;;;;;;;0.00;0.00;;;;;17.65;70.66;101748.31;5073401;27;45555;-80
2021/06/04 05:43:58;;;;;;;;;0.00;0.00;;;;;17.51;71.66;101740.44;5077130;28;45370;-80
2021/06/04 05:46:23;;;;;;;;;0.00;0.00;;;;;17.58;71.15;101729.91;5075185;27;45457;-80
2021/06/04 05:48:49;;;;;;;;;0.00;0.00;;;;;17.75;71.08;101749.13;5060894;27;48344;-80
2021/06/04 05:51:22;;;;;;;;;0.00;0.00;;;;;17.83;70.55;101753.47;5073862;27;45563;-80
2021/06/04 05:53:48;;;;;;;;;0.00;0.00;;;;;17.92;70.86;101755.16;5073728;28;45510;-81
2021/06/04 05:56:16;;;;;;;;;0.00;0.00;;;;;17.91;70.82;101749.91;5064790;28;45404;-80
2021/06/04 05:58:43;;;;;;;;;0.00;0.00;;;;;17.86;70.14;101734.16;5077533;27;45506;-79
2021/06/04 06:01:15;;;;;;;;;0.00;0.00;;;;;17.85;69.74;101732.38;5073521;27;45419;-82
2021/06/04 06:03:41;;;;;;;;;0.00;0.00;;;;;17.85;70.23;101735.00;5077736;28;45557;-82
2021/06/04 06:06:07;;;;;;;;;0.00;0.00;;;;;17.83;70.40;101713.09;5073611;27;45506;-83
2021/06/04 06:08:34;;;;;;;;;0.00;0.00;;;;;17.76;70.36;101711.41;5073963;28;45322;-82
2021/06/04 06:11:00;;;;;;;;;0.00;0.00;;;;;17.58;71.27;101687.78;5076521;28;45489;-83
2021/06/04 06:13:26;;;;;;;;;0.00;0.00;;;;;17.71;71.34;101719.31;5075238;28;45428;-82
2021/06/04 06:15:52;;;;;;;;;0.25;0.00;;;;;17.56;71.86;101670.25;5076720;27;45523;-82
2021/06/04 06:18:18;;;;;;;;;0.00;0.00;;;;;17.60;71.53;101667.59;5075063;27;45633;-82
2021/06/04 06:20:44;;;;;;;;;0.00;0.00;;;;;17.42;71.48;101644.88;5075581;27;45608;-82
2021/06/04 06:23:12;;;;;;;;;0.00;0.00;;;;;17.58;71.72;101668.50;5076113;27;45576;-82
2021/06/04 06:25:44;;;;;;;;;0.00;0.00;;;;;17.69;72.78;101676.31;5076461;28;45565;-82
2021/06/04 06:28:12;;;;;;;;;0.00;0.00;;;;;17.83;72.73;101692.03;5076284;28;45566;-83
2021/06/04 06:30:38;;;;;;;;;0.00;0.00;;;;;17.91;72.39;101686.69;5073845;28;45579;-83
2021/06/04 06:33:04;;;;;;;;;0.00;0.00;;;;;17.93;71.68;101663.88;5074277;27;45470;-83
2021/06/04 06:35:41;;;;;;;;;0.00;0.00;;;;;17.85;71.18;101643.72;5076301;27;45483;-82
2021/06/04 06:38:07;;;;;;;;;0.00;0.00;;;;;17.83;72.10;101642.84;5083298;27;46704;-81
2021/06/04 06:40:34;;;;;;;;;0.00;0.00;;;;;17.86;71.83;101634.06;5084006;27;45460;-82
2021/06/04 06:42:59;;;;;;;;;0.00;0.00;;;;;18.04;71.79;101650.63;5078200;27;45486;-83
2021/06/04 06:45:26;;;;;;;;;0.00;0.00;;;;;18.12;71.57;101648.81;5071055;28;45435;-83
2021/06/04 06:47:53;;;;;;;;;0.00;0.00;;;;;18.16;71.25;101639.13;5072181;28;46106;-80
2021/06/04 06:50:19;;;;;;;;;0.00;0.00;;;;;18.20;71.17;101631.19;5072049;27;45421;-81
2021/06/04 06:52:45;;;;;;;;;0.00;0.00;;;;;18.09;71.16;101610.16;5062167;28;45291;-80
2021/06/04 06:55:11;;;;;;;;;0.00;0.00;;;;;18.32;70.78;101643.34;5075193;27;45340;-81
2021/06/04 06:57:38;;;;;;;;;0.00;0.00;;;;;18.38;71.26;101652.09;5070271;28;48287;-79
2021/06/04 07:00:17;;;;;;;;;0.75;0.00;;;;;18.44;70.68;101666.09;5069747;28;45581;-79
2021/06/04 07:02:42;;;;;;;;;0.00;0.00;;;;;18.49;70.49;101666.94;5074925;28;45381;-79
2021/06/04 07:05:09;;;;;;;;;0.00;0.00;;;;;18.72;69.91;101686.03;5073536;27;46682;-79
2021/06/04 07:07:36;;;;;;;;;0.00;0.00;;;;;18.84;69.99;101683.25;5058673;28;46635;-79
2021/06/04 07:10:03;;;;;;;;;0.00;0.00;;;;;19.03;69.87;101682.19;5070665;28;45367;-81
2021/06/04 07:12:28;;;;;;;;;0.00;0.00;;;;;19.07;69.72;101675.97;5070959;28;45587;-84
2021/06/04 07:14:54;;;;;;;;;0.00;0.00;;;;;19.40;69.08;101697.59;5075741;27;45480;-81
2021/06/04 07:17:19;;;;;;;;;0.00;0.00;;;;;19.49;68.79;101663.16;5072525;27;45483;-83
2021/06/04 07:19:46;;;;;;;;;0.00;0.00;;;;;19.90;68.14;101686.31;5076485;27;45381;-81
2021/06/04 07:22:11;;;;;;;;;0.00;0.00;;;;;19.94;67.32;101666.88;5076366;28;45358;-79
2021/06/04 07:24:36;;;;;;;;;0.00;0.00;;;;;20.03;66.46;101657.09;5075946;27;45487;-85
2021/06/04 07:27:02;;;;;;;;;0.00;0.00;;;;;20.35;66.29;101690.94;5075008;27;45506;-82
2021/06/04 07:29:30;;;;;;;;;0.00;0.00;;;;;20.46;66.00;101698.66;5071227;27;45571;-85
2021/06/04 07:31:57;;;;;;;;;0.00;0.00;;;;;20.36;65.15;101654.75;5074895;28;45364;-83
2021/06/04 07:34:23;;;;;;;;;0.00;0.00;;;;;20.49;65.65;101663.38;5076774;28;45669;-82
2021/06/04 07:36:51;;;;;;;;;0.00;0.00;;;;;20.74;64.93;101687.56;5074645;28;47481;-86
2021/06/04 07:39:24;;;;;;;;;0.50;0.00;;;;;20.74;64.18;101676.97;5075032;28;45467;-82
2021/06/04 07:41:50;;;;;;;;;0.00;0.00;;;;;20.43;64.60;101635.25;5075089;27;45516;-84
2021/06/04 07:44:16;;;;;;;;;0.00;0.00;;;;;20.69;64.55;101662.97;5070109;27;45519;-86
2021/06/04 07:46:44;;;;;;;;;0.00;0.00;;;;;20.76;63.46;101675.19;5065524;28;45512;-84
2021/06/04 07:49:10;;;;;;;;;0.00;0.00;;;;;20.43;63.61;101645.81;5071112;27;45527;-85
2021/06/04 07:51:41;;;;;;;;;0.00;0.00;;;;;20.61;63.71;101688.72;5073980;27;45456;-84
2021/06/04 07:54:07;;;;;;;;;0.00;0.00;;;;;20.32;63.39;101640.75;5063605;27;45543;-83
2021/06/04 07:56:33;;;;;;;;;0.00;0.00;;;;;20.46;63.97;101652.84;5072666;28;46155;-84
2021/06/04 07:59:00;;;;;;;;;0.00;0.00;;;;;20.40;63.79;101635.31;5069739;28;45613;-85
2021/06/04 08:01:27;;;;;;;;;0.00;0.00;;;;;20.71;63.92;101689.41;5075603;28;45458;-89
2021/06/04 08:03:52;;;;;;;;;0.00;0.00;;;;;20.78;63.88;101675.16;5066701;27;48705;-88
2021/06/04 08:06:19;;;;;;;;;0.00;0.00;;;;;20.89;63.78;101667.03;5064011;27;47168;-86
2021/06/04 08:08:45;;;;;;;;;0.00;0.00;;;;;20.69;63.43;101622.41;5066952;28;45433;-86
2021/06/04 08:11:18;;;;;;;;;0.00;0.00;;;;;20.94;63.96;101653.69;5074033;28;45454;-83
2021/06/04 08:13:45;;;;;;;;;0.00;0.00;;;;;20.83;64.37;101625.66;5073755;27;45382;-89
2021/06/04 08:16:11;;;;;;;;;0.00;0.00;;;;;21.00;63.94;101653.59;5081180;27;48052;-88
2021/06/04 08:18:39;;;;;;;;;0.00;0.00;;;;;21.01;63.68;101652.69;5075875;27;45448;-84
2021/06/04 08:21:08;;;;;;;;;0.00;0.00;;;;;20.75;63.29;101614.38;5071018;27;45309;-84
2021/06/04 08:23:38;;;;;;;;;3.00;0.00;;;;;20.98;63.63;101658.06;5061298;27;45539;-88
2021/06/04 08:26:06;;;;;;;;;0.50;0.00;;;;;20.92;63.35;101661.66;5067590;27;49388;-84
2021/06/04 08:28:32;;;;;;;;;0.00;0.00;;;;;20.76;63.35;101646.09;5067144;28;45453;-83
2021/06/04 08:30:58;;;;;;;;;0.00;0.00;;;;;21.03;63.15;101669.41;5076508;27;45523;-92
2021/06/04 08:33:30;;;;;;;;;0.50;0.50;;;;;21.05;62.87;101641.13;5056228;28;45535;-82
2021/06/04 08:35:57;;;;;;;;;0.00;0.00;;;;;21.12;62.29;101644.50;5073900;27;46187;-83
2021/06/04 08:38:23;;;;;;;;;0.00;0.00;;;;;21.14;62.60;101638.28;5073054;27;45456;-81
2021/06/04 08:40:49;;;;;;;;;0.00;0.00;;;;;21.52;62.11;101664.81;5074111;27;45497;-83
2021/06/04 08:43:24;;;;;;;;;0.00;0.00;;;;;21.67;62.55;101665.38;5071040;28;45487;-83
2021/06/04 08:46:15;;;;;;;;;0.00;0.00;;;;;21.79;61.78;101673.97;5071080;27;46208;-82
2021/06/04 08:48:56;;;;;;;;;0.00;0.00;;;;;21.63;61.16;101640.72;5067107;28;45464;-82
2021/06/04 08:51:35;;;;;;;;;0.00;0.00;;;;;21.91;61.44;101660.44;5070667;27;45367;-83
2021/06/04 08:54:34;;;;;;;;;0.00;0.00;;;;;22.03;60.75;101661.91;5073252;27;45673;-85
2021/06/04 08:57:06;;;;;;;;;0.00;0.00;;;;;22.10;60.64;101665.25;5087822;27;46038;-89
2021/06/04 08:59:33;;;;;;;;;0.00;0.00;;;;;21.98;60.07;101666.44;5075602;28;45776;-81
2021/06/04 09:02:12;;;;;;;;;0.00;0.00;;;;;21.95;60.79;101672.69;5072890;27;45632;-81
2021/06/04 09:04:50;;;;;;;;;0.00;0.00;;;;;21.87;61.21;101653.47;5067782;28;45487;-82
2021/06/04 09:07:18;;;;;;;;;0.00;0.00;;;;;21.96;60.60;101669.13;5075289;27;46187;-80
2021/06/04 09:09:45;;;;;;;;;0.75;0.75;;;;;21.94;60.82;101665.66;5077974;28;45492;-82
2021/06/04 09:12:17;;;;;;;;;0.00;0.00;;;;;21.90;60.86;101679.91;5070348;27;45509;-83
2021/06/04 09:14:43;;;;;;;;;0.00;0.00;;;;;21.96;60.38;101678.88;5067234;28;45567;-82
2021/06/04 09:17:20;;;;;;;;;0.00;0.00;;;;;22.06;60.45;101676.84;5073884;27;46035;-83
2021/06/04 09:20:02;;;;;;;;;0.00;0.00;;;;;22.08;60.37;101673.25;5076735;27;45530;-85
2021/06/04 09:22:34;;;;;;;;;0.00;0.00;;;;;22.21;59.91;101668.53;5080563;27;45406;-86
2021/06/04 09:25:00;;;;;;;;;0.00;0.00;;;;;22.42;60.68;101660.91;5070515;28;45478;-92
2021/06/04 09:27:45;;;;;;;;;0.00;0.00;;;;;22.50;59.94;101660.69;5070041;28;47031;-90
2021/06/04 09:30:13;;;;;;;;;0.00;0.00;;;;;22.64;59.15;101679.78;5076580;27;45348;-87
2021/06/04 09:32:41;;;;;;;;;0.00;0.00;;;;;22.67;58.49;101681.50;5078447;28;45504;-87
2021/06/04 09:35:09;;;;;;;;;0.00;0.00;;;;;22.73;58.81;101678.66;5078642;28;45520;-85
2021/06/04 09:37:37;;;;;;;;;0.00;0.00;;;;;22.46;58.49;101624.56;5064917;28;47608;-87
2021/06/04 09:40:20;;;;;;;;;0.00;0.00;;;;;22.89;58.36;101679.13;5077863;27;45445;-91
2021/06/04 09:42:55;;;;;;;;;0.00;0.00;;;;;22.98;58.48;101688.59;5077239;28;45380;-94
2021/06/04 09:45:29;;;;;;;;;0.00;0.00;;;;;22.97;57.52;101675.38;5078788;27;45375;-87
2021/06/04 09:48:04;;;;;;;;;0.00;0.00;;;;;23.07;57.59;101686.59;5073931;28;46288;-93
2021/06/04 09:50:38;;;;;;;;;0.00;0.00;;;;;23.04;57.12;101682.25;5067618;27;45679;-86
2021/06/04 09:53:14;;;;;;;;;0.00;0.00;;;;;23.07;57.57;101690.13;5065530;27;45500;-90
2021/06/04 09:55:39;;;;;;;;;0.00;0.00;;;;;23.19;56.94;101688.91;5068745;28;45522;-84
2021/06/04 09:58:13;;;;;;;;;0.00;0.00;;;;;23.19;57.62;101688.91;5094421;27;47447;-85
2021/06/04 10:00:50;;;;;;;;;0.00;0.00;;;;;23.27;57.39;101689.53;5067000;27;45517;-84
2021/06/04 10:03:42;;;;;;;;;0.00;0.00;;;;;23.20;56.70;101695.06;5071933;27;45523;-83
2021/06/04 10:06:10;;;;;;;;;0.00;0.00;;;;;23.21;56.72;101684.38;5061371;28;45451;-87
2021/06/04 10:08:55;;;;;;;;;0.00;0.00;;;;;23.26;56.61;101695.75;5069342;28;45424;-84
2021/06/04 10:11:25;;;;;;;;;0.00;0.00;;;;;23.07;56.78;101650.28;5076384;27;45399;-88
2021/06/04 10:14:06;;;;;;;;;0.00;0.00;;;;;23.33;57.45;101691.13;5073836;27;45463;-87
2021/06/04 10:19:21;;;;;;;;;2.00;0.00;;;;;23.36;56.22;101700.78;5075628;28;45441;-92
2021/06/04 10:21:49;;;;;;;;;0.00;0.00;;;;;23.42;56.15;101692.66;5073766;27;45482;-89
2021/06/04 10:24:30;;;;;;;;;0.00;0.00;;;;;23.40;56.12;101689.19;5069759;27;45525;-86
2021/06/04 10:27:02;;;;;;;;;0.00;0.00;;;;;23.40;56.05;101697.16;5073367;27;47040;-84
2021/06/04 10:29:28;;;;;;;;;0.00;0.00;;;;;23.39;56.60;101703.38;5065273;28;45533;-90
2021/06/04 10:32:00;;;;;;;;;0.25;0.00;;;;;23.48;56.12;101699.56;5076069;28;45506;-84
2021/06/04 10:34:45;;;;;;;;;0.00;0.00;;;;;23.39;56.63;101669.72;5072328;27;45840;-85
2021/06/04 10:37:23;;;;;;;;;0.00;0.00;;;;;23.47;56.12;101676.59;5085544;27;45369;-87
2021/06/04 10:40:01;;;;;;;;;0.00;0.00;;;;;23.56;56.06;101683.41;5066621;28;46599;-84
2021/06/04 10:42:51;;;;;;;;;0.00;0.00;;;;;23.61;56.32;101698.28;5071621;27;46395;-84
2021/06/04 10:45:32;;;;;;;;;0.00;0.00;;;;;23.56;55.58;101697.56;5073194;27;45381;-84
2021/06/04 10:48:10;;;;;;;;;0.00;0.00;;;;;23.63;56.02;101704.41;5070248;28;45392;-85
2021/06/04 10:50:48;;;;;;;;;0.00;0.00;;;;;23.56;55.58;101702.00;5079088;27;46708;-83
2021/06/04 10:53:38;;;;;;;;;0.00;0.00;;;;;23.64;55.10;101697.31;5077215;27;45396;-84
2021/06/04 10:56:45;;;;;;;;;0.00;0.00;;;;;23.61;54.76;101689.44;5069517;27;45483;-84
2021/06/04 10:59:23;;;;;;;;;0.00;0.00;;;;;23.54;55.26;101699.38;5070477;27;45442;-87
2021/06/04 11:02:14;;;;;;;;;0.00;0.00;;;;;23.34;55.02;101689.34;5064496;28;45497;-85
2021/06/04 11:05:21;;;;;;;;;0.00;0.00;;;;;23.50;56.09;101703.06;5071143;28;45370;-84
2021/06/04 11:08:18;;;;;;;;;0.00;0.00;;;;;23.53;56.05;101709.16;5069777;27;45465;-90
2021/06/04 11:11:15;;;;;;;;;0.00;0.00;;;;;23.37;56.24;101708.72;5058904;27;45649;-86
2021/06/04 11:14:01;;;;;;;;;0.00;0.00;;;;;23.42;56.70;101705.94;5070225;28;45527;-86
2021/06/04 11:16:30;;;;;;;;;0.00;0.00;;;;;23.37;57.16;101706.06;5063191;27;45349;-86
2021/06/04 11:19:22;;;;;;;;;0.00;0.00;;;;;23.16;57.07;101707.56;5067563;27;45477;-87
2021/06/04 11:21:52;;;;;;;;;0.00;0.00;;;;;22.99;57.92;101693.00;5064274;27;45409;-85
2021/06/04 11:24:42;;;;;;;;;0.00;0.00;;;;;23.02;57.67;101702.66;5070373;27;46495;-85
2021/06/04 11:27:18;;;;;;;;;0.00;0.00;;;;;22.55;58.59;101644.66;5069882;28;46468;-88
2021/06/04 11:29:43;;;;;;;;;0.00;0.00;;;;;22.34;59.03;101633.72;5071287;27;45597;-87
2021/06/04 11:32:16;;;;;;;;;0.00;0.00;;;;;22.69;59.08;101705.34;5071910;28;45472;-83
2021/06/04 11:35:04;;;;;;;;;0.00;0.00;;;;;22.29;59.03;101665.66;5067650;28;46056;-83
2021/06/04 11:37:42;;;;;;;;;0.00;0.00;;;;;22.59;59.43;101697.63;5066943;28;45560;-83
2021/06/04 11:40:35;;;;;;;;;0.00;0.00;;;;;22.64;59.17;101697.50;5071158;27;45383;-84
2021/06/04 11:43:07;;;;;;;;;0.00;0.00;;;;;22.67;58.61;101688.59;5065320;28;45478;-84
2021/06/04 11:45:35;;;;;;;;;0.00;0.00;;;;;22.81;58.35;101699.69;5065434;28;45574;-83